Time;durP1;ratioP1;P1;durP2;ratioP2;P2;SDS_P1;SDS_P2;PMS_P1;PMS_P2;Temp;Humidity;BMP_temperature;BMP_pressure;BME280_temperature;BME280_humidity;BME280_pressure;Samples;Min_cycle;Max_cycle;Signal;HPM_P1;HPM_P2
2022/09/21 00:01:59;;;;;;;12.00;3.78;;;9.00;99.90;;;;;;5052504;28;20475;-67
2022/09/21 00:04:24;;;;;;;14.45;5.13;;;8.90;99.90;;;;;;5059430;28;20032;-67
2022/09/21 00:06:50;;;;;;;9.65;4.15;;;8.90;99.90;;;;;;5060319;28;20046;-67
2022/09/21 00:09:15;;;;;;;8.98;3.88;;;8.90;99.90;;;;;;5055671;28;20107;-66
2022/09/21 00:11:41;;;;;;;9.35;3.20;;;8.90;99.90;;;;;;5059464;28;20039;-68
2022/09/21 00:14:11;;;;;;;7.50;3.42;;;8.90;99.90;;;;;;5058035;28;20453;-66
2022/09/21 00:16:37;;;;;;;10.82;3.28;;;8.80;99.90;;;;;;5058029;28;20025;-68
2022/09/21 00:19:03;;;;;;;6.28;3.00;;;8.80;99.90;;;;;;5058928;28;20367;-67
2022/09/21 00:21:29;;;;;;;11.15;3.55;;;8.70;99.90;;;;;;5063555;28;20041;-68
2022/09/21 00:23:54;;;;;;;19.52;3.92;;;8.60;99.90;;;;;;5061798;28;20106;-66
2022/09/21 00:26:22;;;;;;;12.40;3.88;;;8.50;99.90;;;;;;5062223;28;20482;-67
2022/09/21 00:28:58;;;;;;;11.85;3.78;;;8.50;99.90;;;;;;5058840;28;20036;-67
2022/09/21 00:31:25;;;;;;;16.80;3.65;;;8.40;99.90;;;;;;5055166;28;20021;-67
2022/09/21 00:33:51;;;;;;;13.88;4.97;;;8.50;99.90;;;;;;5057587;28;20031;-67
2022/09/21 00:36:20;;;;;;;10.80;3.92;;;8.50;99.90;;;;;;5063380;28;20034;-66
2022/09/21 00:38:49;;;;;;;14.15;4.20;;;8.50;99.90;;;;;;5059960;28;20120;-66
2022/09/21 00:41:15;;;;;;;9.05;2.85;;;8.60;99.90;;;;;;5039151;28;20607;-66
2022/09/21 00:44:08;;;;;;;14.40;3.65;;;8.50;99.90;;;;;;5057756;28;20024;-67
2022/09/21 00:46:37;;;;;;;14.55;4.25;;;8.40;99.90;;;;;;5055981;28;20029;-66
2022/09/21 00:49:03;;;;;;;11.65;3.60;;;8.30;99.90;;;;;;5058614;28;20032;-68
2022/09/21 00:51:29;;;;;;;14.90;3.67;;;8.30;99.90;;;;;;5066499;28;20569;-67
2022/09/21 00:54:01;;;;;;;17.67;4.57;;;8.30;99.90;;;;;;5053318;28;20025;-67
2022/09/21 00:56:28;;;;;;;10.85;4.20;;;8.30;99.90;;;;;;5064986;28;20710;-68
2022/09/21 00:58:54;;;;;;;9.63;3.50;;;8.20;99.90;;;;;;5059178;28;20021;-67
2022/09/21 01:01:20;;;;;;;12.30;3.70;;;8.30;99.90;;;;;;5056974;28;20024;-65
2022/09/21 01:03:49;;;;;;;9.80;3.95;;;8.30;99.90;;;;;;5053629;28;20486;-67
2022/09/21 01:06:17;;;;;;;8.98;3.85;;;8.30;99.90;;;;;;5050747;28;20727;-67
2022/09/21 01:08:45;;;;;;;8.80;3.55;;;8.30;99.90;;;;;;5062416;28;20066;-66
2022/09/21 01:11:52;;;;;;;13.85;3.70;;;8.20;99.90;;;;;;5063878;28;20021;-69
2022/09/21 01:14:25;;;;;;;12.88;4.45;;;8.10;99.90;;;;;;4964508;28;20512;-66
2022/09/21 01:17:05;;;;;;;11.98;4.38;;;8.10;99.90;;;;;;4966996;28;20043;-67
2022/09/21 01:19:56;;;;;;;15.55;4.10;;;8.00;99.90;;;;;;5018530;28;20614;-67
2022/09/21 01:23:03;;;;;;;11.95;4.22;;;8.00;99.90;;;;;;5053817;28;20029;-68
2022/09/21 01:25:40;;;;;;;15.05;4.22;;;8.00;99.90;;;;;;5052832;28;20017;-67
2022/09/21 01:28:11;;;;;;;10.27;3.95;;;8.00;99.90;;;;;;5055694;28;20032;-68
2022/09/21 01:30:40;;;;;;;19.52;4.75;;;8.00;99.90;;;;;;5038127;28;20104;-67
2022/09/21 01:33:16;;;;;;;9.02;4.43;;;8.00;99.90;;;;;;5055126;28;20017;-67
2022/09/21 01:35:53;;;;;;;21.80;5.60;;;8.00;99.90;;;;;;5061488;28;20804;-67
2022/09/21 01:38:20;;;;;;;18.30;4.40;;;7.90;99.90;;;;;;5063387;28;20040;-68
2022/09/21 01:40:51;;;;;;;15.93;4.10;;;8.00;99.90;;;;;;5052432;28;20017;-67
2022/09/21 01:43:28;;;;;;;9.95;3.92;;;8.00;99.90;;;;;;5038984;28;20050;-67
2022/09/21 01:46:00;;;;;;;10.18;5.15;;;8.00;99.90;;;;;;5057645;28;20091;-67
2022/09/21 01:48:29;;;;;;;8.60;3.65;;;8.00;99.90;;;;;;5058267;28;20021;-68
2022/09/21 01:50:56;;;;;;;11.02;4.47;;;8.00;99.90;;;;;;5055665;28;20029;-70
2022/09/21 01:53:30;;;;;;;11.10;4.25;;;8.00;99.90;;;;;;5057370;28;20078;-68
2022/09/21 01:56:00;;;;;;;15.98;4.32;;;8.00;99.90;;;;;;5040047;28;20029;-64
2022/09/21 01:58:32;;;;;;;25.67;4.72;;;8.00;99.90;;;;;;5064019;28;20093;-67
2022/09/21 02:00:58;;;;;;;21.35;5.05;;;8.00;99.90;;;;;;5058122;28;20937;-66
2022/09/21 02:03:37;;;;;;;14.50;4.68;;;7.90;99.90;;;;;;5062393;28;20020;-66
2022/09/21 02:06:04;;;;;;;16.60;4.05;;;8.00;99.90;;;;;;5053672;28;20491;-67
2022/09/21 02:08:31;;;;;;;11.77;4.38;;;7.90;99.90;;;;;;5055124;28;20434;-66
2022/09/21 02:10:59;;;;;;;17.50;4.97;;;7.80;99.90;;;;;;5053082;28;20210;-66
2022/09/21 02:13:27;;;;;;;21.52;4.57;;;7.70;99.90;;;;;;5058169;28;20029;-68
2022/09/21 02:16:19;;;;;;;19.77;4.97;;;7.60;99.90;;;;;;5056883;28;20421;-67
2022/09/21 02:19:01;;;;;;;16.20;5.18;;;7.60;99.90;;;;;;5053100;28;20024;-67
2022/09/21 02:21:49;;;;;;;16.08;5.22;;;7.60;99.90;;;;;;5053231;28;20400;-67
2022/09/21 02:24:31;;;;;;;15.23;6.05;;;7.60;99.90;;;;;;5056727;28;20047;-68
2022/09/21 02:27:17;;;;;;;13.30;4.72;;;7.50;99.90;;;;;;5054820;28;20124;-68
2022/09/21 02:30:14;;;;;;;13.27;4.95;;;7.50;99.90;;;;;;5054919;28;20029;-68
2022/09/21 02:32:55;;;;;;;14.35;5.38;;;7.50;99.90;;;;;;5060095;28;20020;-69
2022/09/21 02:35:31;;;;;;;21.83;5.25;;;7.50;99.90;;;;;;5053865;28;20024;-68
2022/09/21 02:38:25;;;;;;;16.77;5.22;;;7.40;99.90;;;;;;5064225;28;20052;-68
2022/09/21 02:41:18;;;;;;;16.85;5.53;;;7.50;99.90;;;;;;5057380;28;20488;-68
2022/09/21 02:43:50;;;;;;;13.18;4.05;;;7.50;99.90;;;;;;5057415;28;20021;-67
2022/09/21 02:46:26;;;;;;;14.23;4.75;;;7.50;99.90;;;;;;5052925;28;20513;-67
2022/09/21 02:48:57;;;;;;;9.90;5.07;;;7.50;99.90;;;;;;5049140;28;20029;-67
2022/09/21 02:51:29;;;;;;;17.85;5.15;;;7.50;99.90;;;;;;5062260;28;20020;-67
2022/09/21 02:53:57;;;;;;;22.80;8.48;;;7.40;99.90;;;;;;5050457;28;20032;-66
2022/09/21 02:56:24;;;;;;;11.77;4.40;;;7.40;99.90;;;;;;5057663;28;20107;-68
2022/09/21 02:58:54;;;;;;;16.67;5.22;;;7.40;99.90;;;;;;5051750;28;20021;-66
2022/09/21 03:01:21;;;;;;;16.77;5.45;;;7.40;99.90;;;;;;5056154;28;20031;-68
2022/09/21 03:03:47;;;;;;;12.30;5.35;;;7.40;99.90;;;;;;5057492;28;20107;-67
2022/09/21 03:06:13;;;;;;;14.52;5.65;;;7.40;99.90;;;;;;5060456;28;20024;-66
2022/09/21 03:08:39;;;;;;;15.75;5.32;;;7.50;99.90;;;;;;5052965;28;20033;-68
2022/09/21 03:11:05;;;;;;;10.70;4.70;;;7.50;99.90;;;;;;5054473;28;20028;-66
2022/09/21 03:13:31;;;;;;;11.18;5.28;;;7.50;99.90;;;;;;5056402;28;20020;-67
2022/09/21 03:16:01;;;;;;;13.43;4.68;;;7.50;99.90;;;;;;5054678;28;20425;-66
2022/09/21 03:18:27;;;;;;;16.50;5.35;;;7.60;99.90;;;;;;5053053;28;20028;-67
2022/09/21 03:20:52;;;;;;;11.82;3.92;;;7.60;99.90;;;;;;5058732;28;20743;-66
2022/09/21 03:23:18;;;;;;;12.82;5.00;;;7.60;99.90;;;;;;5056196;28;20058;-65
2022/09/21 03:25:45;;;;;;;11.70;4.88;;;7.60;99.90;;;;;;5055681;28;20036;-66
2022/09/21 03:28:11;;;;;;;15.80;6.03;;;7.50;99.90;;;;;;5051172;28;20097;-65
2022/09/21 03:30:37;;;;;;;16.13;5.25;;;7.50;99.90;;;;;;5055608;28;20020;-66
2022/09/21 03:33:04;;;;;;;11.82;4.35;;;7.50;99.90;;;;;;5051790;28;20397;-67
2022/09/21 03:35:30;;;;;;;13.60;5.50;;;7.50;99.90;;;;;;5060184;28;20023;-67
2022/09/21 03:37:56;;;;;;;9.70;4.55;;;7.40;99.90;;;;;;5058124;28;20031;-66
2022/09/21 03:40:22;;;;;;;11.82;4.85;;;7.40;99.90;;;;;;5053272;28;20064;-65
2022/09/21 03:42:48;;;;;;;15.35;5.13;;;7.40;99.90;;;;;;5051424;28;20064;-66
2022/09/21 03:45:13;;;;;;;12.98;4.90;;;7.40;99.90;;;;;;5063001;28;20111;-65
2022/09/21 03:47:39;;;;;;;23.88;5.43;;;7.40;99.90;;;;;;5062202;28;20144;-66
2022/09/21 03:50:06;;;;;;;12.02;4.43;;;7.40;99.90;;;;;;5062670;28;20029;-65
2022/09/21 03:52:32;;;;;;;12.13;4.13;;;7.40;99.90;;;;;;5067930;28;20031;-67
2022/09/21 03:54:57;;;;;;;16.27;5.25;;;7.30;99.90;;;;;;5058005;28;20080;-65
2022/09/21 03:57:23;;;;;;;9.88;4.82;;;7.20;99.90;;;;;;5063387;28;20078;-66
2022/09/21 03:59:49;;;;;;;12.85;4.50;;;7.20;99.90;;;;;;5060400;28;20017;-66
2022/09/21 04:02:15;;;;;;;13.82;4.70;;;7.20;99.90;;;;;;5065231;28;20760;-65
2022/09/21 04:04:41;;;;;;;17.15;5.80;;;7.20;99.90;;;;;;5059389;28;20063;-66
2022/09/21 04:07:07;;;;;;;13.38;4.55;;;7.20;99.90;;;;;;5064245;28;20049;-63
2022/09/21 04:09:33;;;;;;;9.75;4.38;;;7.20;99.90;;;;;;5061124;28;20431;-66
2022/09/21 04:11:58;;;;;;;16.23;4.95;;;7.10;99.90;;;;;;5060473;28;20041;-66
2022/09/21 04:14:24;;;;;;;10.48;4.63;;;7.10;99.90;;;;;;5062259;28;20062;-67
2022/09/21 04:16:50;;;;;;;10.27;4.78;;;7.10;99.90;;;;;;5062527;28;20483;-67
2022/09/21 04:19:17;;;;;;;11.38;4.57;;;7.00;99.90;;;;;;5061477;28;20020;-66
2022/09/21 04:21:42;;;;;;;16.30;5.63;;;7.00;99.90;;;;;;5062666;28;20444;-67
2022/09/21 04:24:08;;;;;;;13.43;4.95;;;6.90;99.90;;;;;;5059791;28;20028;-66
2022/09/21 04:26:34;;;;;;;11.70;5.30;;;6.80;99.90;;;;;;5062375;28;20055;-67
2022/09/21 04:29:00;;;;;;;16.48;6.18;;;6.70;99.90;;;;;;5060474;28;20083;-67
2022/09/21 04:31:27;;;;;;;12.52;5.93;;;6.60;99.90;;;;;;5060040;28;20037;-68
2022/09/21 04:33:54;;;;;;;15.40;6.20;;;6.60;99.90;;;;;;5054996;28;20048;-66
2022/09/21 04:36:22;;;;;;;15.50;6.40;;;6.60;99.90;;;;;;5052498;28;20467;-67
2022/09/21 04:38:48;;;;;;;16.30;6.07;;;6.70;99.90;;;;;;5055357;28;20509;-67
2022/09/21 04:41:15;;;;;;;15.00;6.72;;;6.70;99.90;;;;;;5063165;28;20083;-66
2022/09/21 04:43:42;;;;;;;17.27;6.15;;;6.70;99.90;;;;;;5040424;28;20048;-65
2022/09/21 04:46:10;;;;;;;17.38;6.53;;;6.80;99.90;;;;;;5064129;28;20403;-65
2022/09/21 04:48:35;;;;;;;12.85;7.13;;;6.90;99.90;;;;;;5060510;28;20442;-66
2022/09/21 04:51:02;;;;;;;12.90;6.95;;;6.90;99.90;;;;;;5065171;28;20083;-66
2022/09/21 04:53:29;;;;;;;19.35;6.55;;;6.90;99.90;;;;;;5058150;28;20029;-66
2022/09/21 04:55:54;;;;;;;15.25;6.72;;;6.90;99.90;;;;;;5060385;28;20056;-66
2022/09/21 04:58:21;;;;;;;13.70;7.45;;;7.00;99.90;;;;;;5059026;28;20056;-64
2022/09/21 05:00:51;;;;;;;15.43;7.78;;;7.10;99.90;;;;;;5061918;28;20545;-66
2022/09/21 05:03:18;;;;;;;18.60;8.23;;;7.10;99.90;;;;;;5052467;28;20032;-68
2022/09/21 05:05:52;;;;;;;24.80;9.30;;;7.10;99.90;;;;;;5060231;28;20111;-66
2022/09/21 05:10:01;;;;;;;22.67;9.95;;;7.20;99.90;;;;;;5055224;28;20070;-66
2022/09/21 05:11:09;;;;;;;18.83;9.63;;;7.10;99.90;;;;;;5056039;28;20517;-66
2022/09/21 05:13:35;;;;;;;21.80;9.13;;;7.20;99.90;;;;;;5054356;28;20131;-65
2022/09/21 05:16:01;;;;;;;23.88;9.90;;;7.20;99.90;;;;;;5060827;28;20541;-66
2022/09/21 05:18:28;;;;;;;23.60;10.35;;;7.20;99.90;;;;;;5056622;28;20522;-66
2022/09/21 05:20:58;;;;;;;25.17;10.05;;;7.20;99.90;;;;;;5060086;28;20036;-66
2022/09/21 05:23:25;;;;;;;20.10;9.85;;;7.20;99.90;;;;;;5061046;28;20483;-66
2022/09/21 05:25:51;;;;;;;21.17;10.07;;;7.30;99.90;;;;;;5057219;28;20029;-64
2022/09/21 05:28:18;;;;;;;16.52;9.00;;;7.40;99.90;;;;;;5058173;28;20078;-66
2022/09/21 05:30:45;;;;;;;27.63;9.48;;;7.50;99.90;;;;;;5061923;28;20475;-66
2022/09/21 05:33:16;;;;;;;23.80;10.82;;;7.50;99.90;;;;;;5052219;28;20036;-66
2022/09/21 05:36:19;;;;;;;19.92;10.13;;;7.50;99.90;;;;;;5059306;28;20056;-66
2022/09/21 05:38:44;;;;;;;39.17;10.88;;;7.60;99.90;;;;;;5051046;28;20032;-66
2022/09/21 05:41:10;;;;;;;44.97;12.32;;;7.60;99.90;;;;;;5051178;28;20024;-66
2022/09/21 05:43:36;;;;;;;33.00;11.35;;;7.60;99.90;;;;;;5055317;28;20426;-66
2022/09/21 05:46:25;;;;;;;127.03;16.67;;;7.60;99.90;;;;;;5056564;28;20025;-66
2022/09/21 05:49:01;;;;;;;26.25;9.68;;;7.60;99.90;;;;;;5060859;28;20024;-67
2022/09/21 05:51:40;;;;;;;32.17;10.10;;;7.60;99.90;;;;;;5053153;28;20122;-66
2022/09/21 05:54:48;;;;;;;21.00;10.60;;;7.70;99.90;;;;;;5054748;28;20029;-66
2022/09/21 05:57:41;;;;;;;20.23;9.40;;;7.70;99.90;;;;;;5053330;28;20095;-69
2022/09/21 06:00:19;;;;;;;23.33;10.20;;;7.60;99.90;;;;;;5051896;28;20394;-66
2022/09/21 06:03:08;;;;;;;18.90;9.38;;;7.70;99.90;;;;;;5033213;28;20031;-66
2022/09/21 06:05:33;;;;;;;15.82;8.82;;;7.70;99.90;;;;;;5056333;28;20024;-66
2022/09/21 06:07:59;;;;;;;26.45;10.00;;;7.80;99.90;;;;;;5068683;28;20033;-66
2022/09/21 06:10:28;;;;;;;17.08;9.55;;;7.90;99.90;;;;;;5058898;28;20027;-66
2022/09/21 06:12:54;;;;;;;22.90;10.60;;;8.00;99.90;;;;;;5057231;28;20129;-66
2022/09/21 06:15:19;;;;;;;19.15;10.65;;;8.10;99.90;;;;;;5055824;28;20025;-66
2022/09/21 06:17:45;;;;;;;21.10;10.55;;;8.10;99.90;;;;;;5062684;28;20473;-66
2022/09/21 06:20:10;;;;;;;31.45;10.90;;;8.10;99.90;;;;;;5058964;28;20076;-66
2022/09/21 06:22:36;;;;;;;25.67;11.13;;;8.10;99.90;;;;;;5057043;28;20045;-66
2022/09/21 06:25:01;;;;;;;23.33;11.95;;;8.10;99.90;;;;;;5059770;28;20108;-65
2022/09/21 06:27:27;;;;;;;23.88;11.25;;;8.10;99.90;;;;;;5060923;28;20112;-66
2022/09/21 06:29:53;;;;;;;28.25;13.18;;;8.20;99.90;;;;;;5053396;28;20349;-62
2022/09/21 06:32:19;;;;;;;21.88;11.63;;;8.20;99.90;;;;;;5064946;28;20031;-60
2022/09/21 06:34:44;;;;;;;28.60;12.85;;;8.20;99.90;;;;;;5056549;28;20394;-62
2022/09/21 06:37:10;;;;;;;39.28;13.65;;;8.40;99.90;;;;;;5061471;28;20514;-62
2022/09/21 06:39:35;;;;;;;26.35;13.02;;;8.30;99.90;;;;;;5049629;28;20033;-62
2022/09/21 06:42:01;;;;;;;24.23;12.43;;;8.40;99.90;;;;;;5053917;28;20090;-63
2022/09/21 06:44:28;;;;;;;35.35;13.52;;;8.30;99.90;;;;;;5064518;28;20032;-61
2022/09/21 06:46:54;;;;;;;31.50;14.65;;;8.40;99.90;;;;;;5065776;28;20033;-62
2022/09/21 06:49:19;;;;;;;34.35;13.13;;;8.40;99.90;;;;;;5032610;28;20086;-61
2022/09/21 06:51:46;;;;;;;57.78;18.05;;;8.50;99.90;;;;;;5056460;28;20534;-61
2022/09/21 06:54:12;;;;;;;39.75;17.48;;;8.50;99.90;;;;;;5057006;28;20495;-61
2022/09/21 06:56:37;;;;;;;47.88;17.08;;;8.50;99.90;;;;;;5054425;28;20040;-62
2022/09/21 06:59:03;;;;;;;30.80;14.25;;;8.60;99.90;;;;;;5049732;28;20114;-62
2022/09/21 07:01:29;;;;;;;35.08;14.13;;;8.70;99.90;;;;;;5049196;28;20036;-62
2022/09/21 07:03:54;;;;;;;40.10;15.15;;;8.60;99.90;;;;;;5062297;28;20108;-63
2022/09/21 07:06:20;;;;;;;32.10;14.68;;;8.60;99.90;;;;;;5059585;28;20025;-62
2022/09/21 07:08:52;;;;;;;36.35;14.50;;;8.70;99.90;;;;;;5065640;28;20032;-62
2022/09/21 07:11:18;;;;;;;33.13;15.80;;;8.90;99.90;;;;;;5069719;28;20047;-61
2022/09/21 07:13:44;;;;;;;34.00;15.57;;;9.00;99.90;;;;;;5059592;28;20483;-63
2022/09/21 07:16:10;;;;;;;30.88;15.38;;;9.00;99.90;;;;;;5053441;28;20025;-63
2022/09/21 07:18:37;;;;;;;37.08;16.98;;;9.10;99.90;;;;;;5061138;28;20031;-62
2022/09/21 07:21:05;;;;;;;37.38;16.90;;;9.20;99.90;;;;;;5057113;28;20048;-62
2022/09/21 07:23:31;;;;;;;43.42;17.52;;;9.20;99.90;;;;;;5065762;28;20021;-63
2022/09/21 07:26:01;;;;;;;31.20;16.38;;;9.10;99.90;;;;;;5059109;28;20068;-64
2022/09/21 07:28:26;;;;;;;35.08;16.92;;;9.20;99.90;;;;;;5055985;28;20479;-62
2022/09/21 07:30:52;;;;;;;35.33;17.50;;;9.20;99.90;;;;;;5041048;28;20040;-62
2022/09/21 07:33:17;;;;;;;37.42;18.42;;;9.30;99.90;;;;;;5048671;28;20028;-61
2022/09/21 07:35:55;;;;;;;44.30;19.25;;;9.40;99.90;;;;;;5062223;28;20020;-63
2022/09/21 07:38:22;;;;;;;40.38;18.40;;;9.50;99.90;;;;;;5055830;28;20024;-63
2022/09/21 07:40:47;;;;;;;35.83;17.23;;;9.70;99.90;;;;;;5055952;28;20092;-63
2022/09/21 07:43:13;;;;;;;39.05;18.83;;;9.70;99.90;;;;;;5062960;28;20115;-63
2022/09/21 07:45:39;;;;;;;43.03;17.25;;;9.80;99.90;;;;;;5062488;28;20024;-62
2022/09/21 07:48:05;;;;;;;36.45;18.67;;;9.70;99.90;;;;;;5056513;28;20029;-62
2022/09/21 07:50:32;;;;;;;41.88;19.90;;;9.70;99.90;;;;;;5055433;28;20029;-62
2022/09/21 07:52:59;;;;;;;44.10;19.35;;;9.80;99.90;;;;;;5055879;28;20372;-62
2022/09/21 07:55:25;;;;;;;47.47;23.17;;;9.80;99.90;;;;;;5056213;28;20070;-63
2022/09/21 08:00:35;;;;;;;52.85;23.90;;;9.80;99.90;;;;;;5069593;28;20036;-62
2022/09/21 08:03:00;;;;;;;47.63;22.20;;;9.80;99.90;;;;;;5062885;28;20033;-63
2022/09/21 08:05:26;;;;;;;45.08;21.27;;;9.80;99.90;;;;;;5061863;28;20100;-62
2022/09/21 08:07:55;;;;;;;50.22;24.17;;;9.90;99.90;;;;;;5064502;28;20040;-63
2022/09/21 08:10:21;;;;;;;51.60;23.88;;;10.00;99.90;;;;;;5063427;28;20027;-62
2022/09/21 08:12:47;;;;;;;53.35;26.45;;;10.00;99.90;;;;;;5058349;28;20029;-66
2022/09/21 08:15:13;;;;;;;55.05;24.50;;;10.10;99.90;;;;;;5066808;28;20403;-66
2022/09/21 08:17:39;;;;;;;56.95;27.13;;;10.20;99.90;;;;;;5066930;28;20457;-67
2022/09/21 08:20:05;;;;;;;54.08;26.75;;;10.10;99.90;;;;;;5064168;28;20182;-67
2022/09/21 08:22:31;;;;;;;57.20;26.65;;;10.30;99.90;;;;;;5063386;28;20085;-67
2022/09/21 08:24:56;;;;;;;61.42;27.15;;;10.00;99.90;;;;;;5060367;28;20111;-66
2022/09/21 08:27:24;;;;;;;55.72;28.00;;;10.20;99.90;;;;;;5064905;28;20032;-66
2022/09/21 08:29:50;;;;;;;61.13;26.33;;;10.20;99.90;;;;;;5055195;28;20017;-66
2022/09/21 08:32:15;;;;;;;58.28;28.73;;;10.30;99.90;;;;;;5060869;28;20036;-67
2022/09/21 08:34:41;;;;;;;55.05;26.83;;;10.40;99.90;;;;;;5055117;28;20064;-67
2022/09/21 08:37:06;;;;;;;58.20;25.27;;;10.40;99.90;;;;;;5057448;28;20659;-67
2022/09/21 08:39:32;;;;;;;54.22;24.85;;;10.60;99.90;;;;;;5032516;28;20027;-66
2022/09/21 08:42:16;;;;;;;44.88;23.52;;;10.50;99.90;;;;;;5061205;28;20029;-66
2022/09/21 08:44:52;;;;;;;49.25;23.05;;;10.70;99.90;;;;;;5056446;28;20815;-67
2022/09/21 08:47:33;;;;;;;52.05;22.70;;;10.90;99.90;;;;;;5054930;28;20025;-66
2022/09/21 08:50:01;;;;;;;45.53;22.27;;;11.10;99.90;;;;;;5052735;28;20039;-66
2022/09/21 08:52:27;;;;;;;46.70;22.00;;;11.10;99.90;;;;;;5056197;28;20035;-66
2022/09/21 08:55:15;;;;;;;43.88;22.92;;;11.10;99.90;;;;;;5059372;28;20034;-65
2022/09/21 08:57:41;;;;;;;47.42;23.98;;;11.20;99.90;;;;;;5063996;28;20064;-65
2022/09/21 09:00:13;;;;;;;49.25;23.50;;;11.30;99.90;;;;;;5059004;28;20439;-65
2022/09/21 09:02:42;;;;;;;51.67;23.80;;;11.10;99.90;;;;;;5048768;28;20033;-64
2022/09/21 09:05:32;;;;;;;46.28;22.08;;;11.10;99.90;;;;;;5058441;28;20032;-65
2022/09/21 09:08:05;;;;;;;49.05;24.05;;;11.30;99.90;;;;;;5059671;28;20458;-66
2022/09/21 09:10:55;;;;;;;41.25;22.23;;;11.40;99.90;;;;;;5054168;28;20045;-65
2022/09/21 09:13:52;;;;;;;44.75;22.90;;;11.50;99.90;;;;;;5060226;28;20090;-67
2022/09/21 09:16:18;;;;;;;45.08;23.45;;;11.50;99.90;;;;;;5054597;28;20032;-66
2022/09/21 09:18:58;;;;;;;49.05;23.45;;;11.70;99.90;;;;;;5063241;28;20021;-66
2022/09/21 09:21:30;;;;;;;48.05;22.25;;;11.80;99.90;;;;;;5052396;28;20367;-66
2022/09/21 09:24:01;;;;;;;42.25;22.70;;;12.00;99.90;;;;;;5056153;28;20029;-66
2022/09/21 09:26:43;;;;;;;37.33;19.00;;;12.10;99.90;;;;;;5055910;28;20035;-67
2022/09/21 09:29:17;;;;;;;36.97;20.05;;;12.20;99.90;;;;;;5056239;28;20037;-67
2022/09/21 09:31:44;;;;;;;42.23;20.17;;;12.40;99.90;;;;;;5066564;28;20123;-67
2022/09/21 09:34:44;;;;;;;33.03;20.05;;;12.50;99.90;;;;;;5054682;28;20309;-66
2022/09/21 09:37:13;;;;;;;38.38;17.83;;;12.60;99.90;;;;;;5016607;28;20494;-67
2022/09/21 09:39:41;;;;;;;36.42;17.85;;;12.80;99.90;;;;;;5055208;28;20025;-67
2022/09/21 09:42:29;;;;;;;32.05;17.92;;;13.00;99.90;;;;;;5062207;28;20048;-67
2022/09/21 09:45:05;;;;;;;29.48;17.77;;;13.10;99.90;;;;;;5027376;28;20418;-67
2022/09/21 09:48:05;;;;;;;30.70;16.52;;;13.30;99.90;;;;;;5061374;28;20028;-67
2022/09/21 09:50:37;;;;;;;28.45;16.38;;;13.30;99.90;;;;;;5063150;28;20033;-66
2022/09/21 09:53:05;;;;;;;24.08;14.65;;;13.60;99.90;;;;;;5054169;28;20021;-66
2022/09/21 09:55:39;;;;;;;25.27;13.63;;;13.80;99.90;;;;;;5062365;28;20066;-66
2022/09/21 09:58:18;;;;;;;26.05;13.70;;;13.90;99.90;;;;;;5054926;28;20551;-66
2022/09/21 10:00:46;;;;;;;26.08;11.38;;;14.20;99.90;;;;;;5057739;28;20107;-67
2022/09/21 10:03:18;;;;;;;21.17;10.90;;;14.50;99.90;;;;;;5060513;28;20025;-66
2022/09/21 10:05:43;;;;;;;13.30;8.65;;;14.90;99.90;;;;;;5056454;28;20028;-67
2022/09/21 10:08:35;;;;;;;17.77;9.05;;;15.20;99.90;;;;;;5050918;28;20037;-67
2022/09/21 10:11:02;;;;;;;11.05;6.00;;;15.50;99.90;;;;;;5053807;28;20048;-67
2022/09/21 10:13:31;;;;;;;19.15;7.90;;;15.70;99.90;;;;;;5056307;28;20778;-67
2022/09/21 10:16:10;;;;;;;18.05;6.88;;;15.80;99.90;;;;;;5054670;28;20483;-66
2022/09/21 10:19:00;;;;;;;9.40;4.82;;;16.00;99.90;;;;;;5055848;28;20016;-66
2022/09/21 10:21:31;;;;;;;9.27;4.47;;;15.90;99.90;;;;;;5054667;28;20021;-67
2022/09/21 10:24:00;;;;;;;9.38;5.00;;;16.20;99.90;;;;;;5062434;28;20393;-67
2022/09/21 10:26:42;;;;;;;17.33;4.38;;;15.90;99.90;;;;;;5052862;28;20040;-66
2022/09/21 10:29:24;;;;;;;10.38;3.88;;;15.90;99.90;;;;;;5050718;28;20056;-67
2022/09/21 10:32:03;;;;;;;11.05;5.18;;;16.20;99.90;;;;;;5049184;28;20037;-67
2022/09/21 10:34:32;;;;;;;12.70;5.60;;;16.20;99.90;;;;;;5057026;28;20040;-68
2022/09/21 10:37:00;;;;;;;11.20;4.60;;;16.10;99.90;;;;;;5048348;28;20029;-67
2022/09/21 10:39:30;;;;;;;11.45;3.67;;;16.10;99.90;;;;;;5058942;28;20086;-66
2022/09/21 10:42:00;;;;;;;8.85;3.45;;;16.00;99.90;;;;;;5061498;28;20035;-67
2022/09/21 10:44:39;;;;;;;8.48;3.58;;;16.20;99.90;;;;;;5054381;28;20028;-66
2022/09/21 10:47:32;;;;;;;15.80;3.80;;;16.20;99.90;;;;;;5057664;28;20051;-67
2022/09/21 10:50:01;;;;;;;10.23;3.03;;;16.50;99.90;;;;;;5058244;28;20086;-67
2022/09/21 10:52:37;;;;;;;13.77;2.85;;;16.50;99.90;;;;;;5056983;28;20113;-67
2022/09/21 10:55:04;;;;;;;4.80;1.77;;;16.60;99.90;;;;;;5053589;28;20028;-67
2022/09/21 10:57:32;;;;;;;8.18;1.70;;;16.60;99.90;;;;;;5061014;28;20513;-67
2022/09/21 11:00:28;;;;;;;7.45;1.70;;;16.70;99.90;;;;;;5049597;28;20040;-67
2022/09/21 11:02:55;;;;;;;2.13;0.90;;;16.80;99.90;;;;;;5059689;28;20095;-67
2022/09/21 11:05:28;;;;;;;2.22;1.00;;;16.90;99.90;;;;;;5046296;28;20035;-66
2022/09/21 11:08:03;;;;;;;4.85;1.30;;;17.10;99.90;;;;;;5059716;28;20028;-67
2022/09/21 11:10:39;;;;;;;8.30;1.10;;;17.40;99.90;;;;;;5057338;28;20032;-67
2022/09/21 11:13:28;;;;;;;1.50;0.90;;;17.10;99.90;;;;;;5060307;28;20029;-67
2022/09/21 11:16:09;;;;;;;6.88;0.82;;;17.20;99.90;;;;;;5049964;28;20029;-67
2022/09/21 11:18:57;;;;;;;4.78;0.90;;;17.40;99.90;;;;;;5053982;28;20025;-67
2022/09/21 11:21:54;;;;;;;3.10;1.00;;;17.70;99.90;;;;;;5057981;28;20028;-69
2022/09/21 11:24:22;;;;;;;4.25;0.80;;;17.50;99.90;;;;;;5052627;28;20036;-67
2022/09/21 11:26:55;;;;;;;7.60;1.10;;;17.80;99.90;;;;;;5054661;28;20053;-67
2022/09/21 11:29:30;;;;;;;5.90;1.20;;;18.00;99.90;;;;;;5062874;28;20025;-67
2022/09/21 11:32:07;;;;;;;1.35;0.68;;;18.20;99.90;;;;;;5051775;28;20104;-63
2022/09/21 11:34:53;;;;;;;5.63;1.20;;;17.90;99.90;;;;;;5054448;28;20417;-62
2022/09/21 11:37:27;;;;;;;6.75;1.00;;;18.20;99.90;;;;;;5053654;28;20032;-60
2022/09/21 11:40:01;;;;;;;;;;;18.70;99.90;;;;;;5057204;28;20025;-63
2022/09/21 11:42:36;;;;;;;2.13;0.98;;;18.90;99.90;;;;;;5055735;28;19916;-61
2022/09/21 11:45:05;;;;;;;;;;;18.70;99.90;;;;;;5054317;28;20197;-62
2022/09/21 11:47:40;;;;;;;4.18;1.38;;;18.70;99.90;;;;;;5048172;28;20305;-59
2022/09/21 11:50:45;;;;;;;8.60;1.42;;;18.90;99.90;;;;;;5050707;28;20333;-67
2022/09/21 11:53:22;;;;;;;3.15;1.25;;;19.10;99.90;;;;;;5059538;28;20037;-67
2022/09/21 11:56:06;;;;;;;4.95;1.25;;;19.10;99.90;;;;;;5048452;28;20021;-68
2022/09/21 11:59:08;;;;;;;1.80;0.90;;;19.60;99.90;;;;;;5054164;28;20107;-68
2022/09/21 12:01:44;;;;;;;1.95;0.88;;;19.80;99.90;;;;;;5030843;28;20893;-67
2022/09/21 12:04:25;;;;;;;7.00;1.40;;;19.50;99.90;;;;;;5048574;28;20038;-68
2022/09/21 12:07:25;;;;;;;5.93;1.50;;;19.30;99.90;;;;;;5056725;28;20090;-67
2022/09/21 12:10:06;;;;;;;4.00;1.00;;;19.50;99.90;;;;;;5019675;28;20044;-67
2022/09/21 12:12:42;;;;;;;3.85;1.00;;;19.70;99.90;;;;;;5058562;28;20124;-68
2022/09/21 12:15:08;;;;;;;5.63;1.23;;;20.10;99.90;;;;;;5051393;28;20033;-67
2022/09/21 12:17:33;;;;;;;7.28;1.23;;;19.50;99.90;;;;;;5057102;28;20433;-67
2022/09/21 12:20:23;;;;;;;2.78;1.02;;;19.10;99.90;;;;;;5051373;28;20032;-67
2022/09/21 12:22:58;;;;;;;5.35;1.25;;;19.50;99.90;;;;;;5061389;28;20021;-68
2022/09/21 12:25:56;;;;;;;5.07;1.42;;;19.40;99.90;;;;;;5054125;28;20040;-68
2022/09/21 12:28:25;;;;;;;4.00;1.25;;;19.40;99.90;;;;;;5035198;28;20040;-67
2022/09/21 12:30:56;;;;;;;5.97;1.83;;;19.90;99.90;;;;;;5059641;28;20020;-67
2022/09/21 12:33:47;;;;;;;6.43;0.93;;;20.20;99.90;;;;;;5058883;28;20029;-67
2022/09/21 12:36:41;;;;;;;7.43;1.55;;;20.50;99.90;;;;;;5053864;28;20029;-66
2022/09/21 12:39:20;;;;;;;5.85;1.15;;;21.00;99.90;;;;;;5055087;28;20418;-69
2022/09/21 12:41:55;;;;;;;5.75;1.08;;;20.80;99.90;;;;;;5055032;28;20044;-68
2022/09/21 12:44:50;;;;;;;4.20;0.93;;;21.10;99.90;;;;;;5049935;28;20029;-68
2022/09/21 12:47:31;;;;;;;;;;;21.00;99.90;;;;;;5057635;28;20024;-67
2022/09/21 12:50:04;;;;;;;3.05;0.93;;;20.80;99.90;;;;;;5052052;28;19913;-67
2022/09/21 12:52:32;;;;;;;5.38;0.80;;;21.10;99.90;;;;;;5054543;28;20350;-68
2022/09/21 12:55:37;;;;;;;5.65;0.88;;;21.30;99.90;;;;;;5057480;28;20021;-67
2022/09/21 12:58:15;;;;;;;1.63;0.60;;;21.30;99.90;;;;;;5011971;28;20048;-67
2022/09/21 13:01:15;;;;;;;2.78;0.80;;;21.40;99.90;;;;;;5063631;28;20016;-67
2022/09/21 13:03:55;;;;;;;5.07;0.90;;;21.30;99.90;;;;;;5029302;28;20055;-68
2022/09/21 13:06:23;;;;;;;6.30;0.82;;;21.70;99.90;;;;;;5054215;28;20025;-68
2022/09/21 13:08:50;;;;;;;4.57;0.68;;;21.40;99.90;;;;;;5059626;28;20372;-67
2022/09/21 13:11:20;;;;;;;2.70;0.82;;;21.70;99.90;;;;;;5058680;28;20036;-66
2022/09/21 13:13:51;;;;;;;3.58;0.60;;;21.40;99.90;;;;;;5056996;28;20070;-68